Time;durP1;ratioP1;P1;durP2;ratioP2;P2;SDS_P1;SDS_P2;PMS_P1;PMS_P2;Temp;Humidity;BMP_temperature;BMP_pressure;BME280_temperature;BME280_humidity;BME280_pressure;Samples;Min_cycle;Max_cycle;Signal;HPM_P1;HPM_P2
2023/03/12 00:02:28;;;;;;;5.67;1.60;;;;;;;-1.62;96.49;100669.78;6001573;28;20390;-73
2023/03/12 00:05:24;;;;;;;3.47;1.40;;;;;;;-1.65;97.08;100672.53;6004108;28;20270;-70
2023/03/12 00:08:20;;;;;;;6.95;1.35;;;;;;;-1.65;96.85;100659.53;6001601;28;20094;-71
2023/03/12 00:11:17;;;;;;;3.40;1.50;;;;;;;-1.67;97.24;100666.56;6003653;28;20567;-72
2023/03/12 00:14:12;;;;;;;3.60;1.52;;;;;;;-1.77;97.16;100667.91;6004003;28;20027;-70
2023/03/12 00:17:07;;;;;;;2.67;1.27;;;;;;;-1.83;97.49;100668.19;6003506;28;20031;-71
2023/03/12 00:20:05;;;;;;;4.57;1.57;;;;;;;-1.79;97.74;100684.47;6001874;28;20061;-72
2023/03/12 00:23:01;;;;;;;4.50;1.55;;;;;;;-1.74;97.83;100675.56;6002973;28;20065;-70
2023/03/12 00:26:01;;;;;;;3.90;1.23;;;;;;;-1.79;96.70;100661.91;6018425;28;20038;-72
2023/03/12 00:28:56;;;;;;;3.30;1.48;;;;;;;-1.75;96.43;100681.66;5999398;28;20109;-71
2023/03/12 00:31:51;;;;;;;3.08;1.27;;;;;;;-1.71;97.23;100678.00;6003757;28;20047;-70
2023/03/12 00:34:54;;;;;;;2.70;1.37;;;;;;;-1.88;97.17;100658.00;6003172;28;20654;-70
2023/03/12 00:37:49;;;;;;;4.78;1.42;;;;;;;-1.85;96.70;100660.44;6002784;28;20113;-70
2023/03/12 00:40:44;;;;;;;3.30;1.10;;;;;;;-1.78;96.79;100684.41;6003716;28;20053;-71
2023/03/12 00:43:40;;;;;;;6.93;1.57;;;;;;;-1.83;97.48;100670.78;6002701;28;20347;-69
2023/03/12 00:46:35;;;;;;;3.90;1.40;;;;;;;-1.86;96.40;100683.91;6003938;28;20050;-72
2023/03/12 00:49:30;;;;;;;3.57;1.37;;;;;;;-1.86;97.70;100676.09;6004209;28;20035;-72
2023/03/12 00:52:26;;;;;;;2.10;0.93;;;;;;;-1.86;97.63;100671.75;6002933;28;20106;-70
2023/03/12 00:55:21;;;;;;;4.10;1.50;;;;;;;-1.93;96.75;100648.72;6003943;28;20109;-71
2023/03/12 00:58:16;;;;;;;4.28;1.63;;;;;;;-1.79;97.71;100671.50;6002960;28;20088;-71
2023/03/12 01:01:12;;;;;;;3.03;0.97;;;;;;;-1.81;96.66;100650.75;6006126;28;20042;-70
2023/03/12 01:04:07;;;;;;;3.17;1.40;;;;;;;-1.77;96.05;100648.88;6002524;28;20074;-70
2023/03/12 01:07:03;;;;;;;2.17;0.95;;;;;;;-1.67;96.32;100650.97;6003025;28;20270;-72
2023/03/12 01:09:58;;;;;;;1.48;0.75;;;;;;;-1.67;96.41;100647.53;6003509;28;20102;-72
2023/03/12 01:12:53;;;;;;;3.07;1.00;;;;;;;-1.72;96.69;100629.56;6002428;28;20434;-71
2023/03/12 01:15:49;;;;;;;3.03;1.63;;;;;;;-1.62;95.47;100638.59;6003295;28;20061;-72
2023/03/12 01:18:44;;;;;;;3.30;1.37;;;;;;;-1.63;95.62;100644.69;6003384;28;20048;-71
2023/03/12 01:21:39;;;;;;;2.63;1.03;;;;;;;-1.54;95.04;100646.88;6003106;28;20031;-71
2023/03/12 01:24:35;;;;;;;4.83;1.50;;;;;;;-1.58;94.87;100654.91;6002017;28;20093;-72
2023/03/12 01:27:30;;;;;;;2.57;1.37;;;;;;;-1.59;95.31;100661.84;6003061;28;20285;-69
2023/03/12 01:30:26;;;;;;;2.87;1.10;;;;;;;-1.59;94.93;100656.66;6002654;28;20352;-68
2023/03/12 01:33:21;;;;;;;2.97;1.25;;;;;;;-1.56;94.62;100661.72;6001831;28;20038;-72
2023/03/12 01:36:22;;;;;;;5.27;1.30;;;;;;;-1.50;94.64;100658.84;5998403;28;20039;-69
2023/03/12 01:39:17;;;;;;;2.40;1.10;;;;;;;-1.57;94.75;100647.03;6015357;28;20271;-71
2023/03/12 01:42:12;;;;;;;2.10;1.00;;;;;;;-1.55;94.31;100634.78;6002132;28;20050;-73
2023/03/12 01:45:45;;;;;;;2.47;1.03;;;;;;;-1.36;93.58;100661.63;6002883;28;20433;-70
2023/03/12 01:48:49;;;;;;;10.30;1.30;;;;;;;-1.37;93.75;100657.34;6000737;28;20045;-71
2023/03/12 01:51:47;;;;;;;7.97;1.48;;;;;;;-1.42;93.88;100656.72;6010577;28;20184;-71
2023/03/12 01:54:54;;;;;;;5.30;1.30;;;;;;;-1.48;93.81;100631.00;6004575;28;20035;-71
2023/03/12 01:57:53;;;;;;;4.20;1.42;;;;;;;-1.54;93.85;100636.50;6017652;28;20061;-72
2023/03/12 02:00:48;;;;;;;4.25;1.30;;;;;;;-1.48;93.74;100636.22;6017226;28;20038;-71
2023/03/12 02:03:45;;;;;;;1.37;0.83;;;;;;;-1.48;92.94;100646.59;6001381;28;20046;-70
2023/03/12 02:06:57;;;;;;;3.03;1.00;;;;;;;-1.47;93.48;100644.84;6000782;28;20089;-69
2023/03/12 02:09:52;;;;;;;4.15;1.27;;;;;;;-1.55;93.39;100640.00;6009208;28;20031;-71
2023/03/12 02:12:47;;;;;;;2.37;1.03;;;;;;;-1.62;94.09;100637.75;6007635;28;20167;-72
2023/03/12 02:15:43;;;;;;;9.85;1.40;;;;;;;-1.68;94.51;100636.28;6009472;28;20482;-71
2023/03/12 02:18:38;;;;;;;3.40;1.30;;;;;;;-1.78;93.66;100637.63;6009663;28;20494;-70
2023/03/12 02:21:36;;;;;;;2.70;1.47;;;;;;;-1.74;94.68;100646.97;6006864;28;20422;-70
2023/03/12 02:24:39;;;;;;;3.72;1.05;;;;;;;-1.70;94.18;100647.66;6009292;28;20334;-70
2023/03/12 02:27:36;;;;;;;2.45;0.90;;;;;;;-1.85;94.92;100634.44;6024529;28;20035;-72
2023/03/12 02:30:31;;;;;;;2.00;0.95;;;;;;;-1.88;94.51;100641.56;6010148;28;20031;-70
2023/03/12 02:33:27;;;;;;;5.88;1.58;;;;;;;-1.98;94.73;100637.66;6008805;28;20481;-71
2023/03/12 02:36:22;;;;;;;3.83;1.17;;;;;;;-2.02;95.39;100633.53;6011009;28;20163;-71
2023/03/12 02:39:18;;;;;;;6.70;1.57;;;;;;;-2.11;95.51;100631.34;6009209;28;20337;-70
2023/03/12 02:42:13;;;;;;;2.45;1.00;;;;;;;-2.17;95.96;100629.00;6007884;28;20486;-70
2023/03/12 02:45:09;;;;;;;8.50;1.05;;;;;;;-2.01;95.97;100645.63;5998066;28;20387;-70
2023/03/12 02:48:07;;;;;;;2.08;1.00;;;;;;;-2.01;95.91;100645.63;6019684;28;20029;-71
2023/03/12 02:51:03;;;;;;;2.63;1.17;;;;;;;-2.01;96.14;100650.81;6009824;28;20479;-72
2023/03/12 02:53:58;;;;;;;5.65;1.55;;;;;;;-1.99;95.48;100651.59;6008851;28;20038;-72
2023/03/12 02:56:53;;;;;;;3.47;1.40;;;;;;;-1.99;95.01;100659.38;6009640;28;20061;-72
2023/03/12 02:59:49;;;;;;;2.10;1.10;;;;;;;-2.00;95.08;100663.72;6009419;28;20034;-70
2023/03/12 03:02:44;;;;;;;5.13;1.30;;;;;;;-2.15;95.34;100648.00;6007371;28;20270;-70
2023/03/12 03:05:39;;;;;;;3.87;1.23;;;;;;;-2.15;95.60;100658.38;6007209;28;20034;-71
2023/03/12 03:08:35;;;;;;;4.37;1.30;;;;;;;-2.19;96.23;100651.63;6008969;28;20042;-71
2023/03/12 03:11:30;;;;;;;3.17;1.33;;;;;;;-2.24;96.27;100645.78;6009492;28;20049;-71
2023/03/12 03:14:25;;;;;;;3.60;1.07;;;;;;;-2.32;95.79;100634.91;6008938;28;20041;-71
2023/03/12 03:17:23;;;;;;;5.13;1.23;;;;;;;-2.30;95.58;100654.69;6009531;28;20035;-71
2023/03/12 03:20:18;;;;;;;2.30;1.10;;;;;;;-2.44;96.45;100641.47;6006208;28;20387;-70
2023/03/12 03:23:14;;;;;;;7.20;1.52;;;;;;;-2.56;97.58;100645.44;6007801;28;20062;-71
2023/03/12 03:26:09;;;;;;;4.20;1.10;;;;;;;-2.63;97.48;100644.00;6005044;28;20504;-70
2023/03/12 03:29:04;;;;;;;3.00;0.90;;;;;;;-2.47;99.63;100657.16;6005331;28;20372;-70
2023/03/12 03:32:00;;;;;;;7.73;1.13;;;;;;;-2.54;100.00;100646.22;6005114;28;20490;-70
2023/03/12 03:34:55;;;;;;;1.93;0.77;;;;;;;-2.62;100.00;100650.88;6003795;28;20093;-70
2023/03/12 03:37:50;;;;;;;4.20;1.60;;;;;;;-2.56;100.00;100657.56;5999306;28;20030;-70
2023/03/12 03:40:45;;;;;;;3.70;1.20;;;;;;;-2.64;99.76;100663.09;6005383;28;20070;-70
2023/03/12 03:43:41;;;;;;;3.03;1.67;;;;;;;-2.73;99.82;100650.50;6004165;28;20053;-69
2023/03/12 03:46:36;;;;;;;2.93;1.23;;;;;;;-2.80;99.46;100658.59;6004587;28;20479;-70
2023/03/12 03:49:31;;;;;;;2.33;1.27;;;;;;;-2.88;99.56;100645.94;6000135;28;20043;-69
2023/03/12 03:52:27;;;;;;;3.87;1.50;;;;;;;-2.86;100.00;100659.69;6003865;28;20678;-69
2023/03/12 03:55:22;;;;;;;2.60;1.20;;;;;;;-2.91;100.00;100655.59;6005138;28;20107;-70
2023/03/12 03:58:17;;;;;;;3.23;1.63;;;;;;;-2.81;100.00;100667.28;6005007;28;20043;-69
2023/03/12 04:01:13;;;;;;;7.67;1.40;;;;;;;-2.81;100.00;100662.94;6004150;28;20270;-70
2023/03/12 04:04:09;;;;;;;6.53;1.60;;;;;;;-2.66;100.00;100667.47;6002429;28;20293;-69
2023/03/12 04:07:04;;;;;;;4.57;1.67;;;;;;;-2.79;100.00;100635.19;6004979;28;20410;-70
2023/03/12 04:09:59;;;;;;;4.87;1.77;;;;;;;-2.62;100.00;100658.66;6004267;28;20039;-70
2023/03/12 04:12:55;;;;;;;9.50;1.70;;;;;;;-2.58;100.00;100649.84;6014582;28;20034;-69
2023/03/12 04:15:52;;;;;;;6.55;1.88;;;;;;;-2.62;100.00;100642.25;6004348;28;20062;-70
2023/03/12 04:18:47;;;;;;;4.60;1.75;;;;;;;-2.67;100.00;100646.81;6004217;28;20035;-70
2023/03/12 04:21:42;;;;;;;4.30;1.70;;;;;;;-2.69;100.00;100644.25;6004313;28;20054;-69
2023/03/12 04:24:38;;;;;;;5.07;1.60;;;;;;;-2.67;100.00;100639.88;6004165;28;20042;-70
2023/03/12 04:27:33;;;;;;;5.30;1.73;;;;;;;-2.61;100.00;100644.78;6004608;28;20078;-70
2023/03/12 04:30:28;;;;;;;6.40;1.80;;;;;;;-2.55;99.55;100638.47;6002724;28;20027;-70
2023/03/12 04:33:25;;;;;;;8.63;1.87;;;;;;;-2.48;99.48;100653.75;6001282;28;20545;-69
2023/03/12 04:36:21;;;;;;;2.90;1.30;;;;;;;-2.56;100.00;100642.84;6003452;28;20530;-70
2023/03/12 04:39:18;;;;;;;2.60;1.30;;;;;;;-2.48;99.01;100656.34;6000357;28;20023;-69
2023/03/12 04:42:13;;;;;;;2.83;1.10;;;;;;;-2.52;99.57;100648.72;6003635;28;20070;-69
2023/03/12 04:45:09;;;;;;;5.93;1.67;;;;;;;-2.60;99.31;100643.03;6003461;28;20475;-69
2023/03/12 04:48:05;;;;;;;5.03;1.40;;;;;;;-2.50;99.65;100658.13;6009267;28;20296;-70
2023/03/12 04:51:01;;;;;;;4.57;1.53;;;;;;;-2.63;99.41;100641.41;6003663;28;20031;-69
2023/03/12 04:53:57;;;;;;;3.85;1.52;;;;;;;-2.62;99.28;100640.50;6002163;28;20043;-69
2023/03/12 04:56:53;;;;;;;3.92;1.30;;;;;;;-2.57;99.61;100648.09;6003744;28;20027;-70
2023/03/12 04:59:48;;;;;;;3.90;1.43;;;;;;;-2.59;99.92;100661.16;6006873;28;20045;-70
2023/03/12 05:02:43;;;;;;;2.93;1.00;;;;;;;-2.62;99.72;100661.28;6002161;28;20043;-70
2023/03/12 05:05:38;;;;;;;2.93;1.03;;;;;;;-2.73;100.00;100639.25;6003481;28;20042;-69
2023/03/12 05:08:34;;;;;;;3.13;1.87;;;;;;;-2.67;100.00;100642.47;6002808;28;20278;-70
2023/03/12 05:11:29;;;;;;;3.57;1.20;;;;;;;-2.71;100.00;100642.63;6003610;28;20112;-70
2023/03/12 05:14:24;;;;;;;3.47;1.15;;;;;;;-2.70;100.00;100655.56;6002219;28;20030;-70
2023/03/12 05:17:20;;;;;;;4.30;1.50;;;;;;;-2.65;100.00;100658.78;6002978;28;20039;-70
2023/03/12 05:20:16;;;;;;;4.68;1.27;;;;;;;-2.68;100.00;100661.53;6002706;28;20042;-70
2023/03/12 05:23:11;;;;;;;2.97;1.27;;;;;;;-2.64;100.00;100657.06;6002500;28;20053;-70
2023/03/12 05:26:18;;;;;;;2.83;1.30;;;;;;;-2.64;100.00;100657.91;6002883;28;20467;-70
2023/03/12 05:29:14;;;;;;;4.38;1.73;;;;;;;-2.62;100.00;100642.25;6002846;28;20042;-70
2023/03/12 05:32:09;;;;;;;6.55;1.95;;;;;;;-2.60;100.00;100635.25;6002318;28;20763;-70
2023/03/12 05:35:05;;;;;;;5.73;2.10;;;;;;;-2.47;100.00;100646.78;6000701;28;20038;-69
2023/03/12 05:38:00;;;;;;;4.53;1.85;;;;;;;-2.41;99.95;100641.31;6007048;28;20539;-70
2023/03/12 05:40:58;;;;;;;4.10;1.70;;;;;;;-2.41;100.00;100637.00;6001784;28;20027;-70
2023/03/12 05:43:55;;;;;;;7.38;1.90;;;;;;;-2.30;99.66;100638.25;5998705;28;20479;-70
2023/03/12 05:46:50;;;;;;;14.35;4.32;;;;;;;-2.29;98.84;100620.03;6000779;28;20100;-70
2023/03/12 05:49:46;;;;;;;6.47;3.05;;;;;;;-2.19;98.09;100621.31;6005271;28;20042;-70
2023/03/12 05:52:41;;;;;;;5.00;1.65;;;;;;;-2.07;97.71;100633.75;6001883;28;20084;-71
2023/03/12 05:55:38;;;;;;;14.37;5.30;;;;;;;-2.00;97.92;100634.31;5994113;28;20047;-71
2023/03/12 05:58:34;;;;;;;19.15;4.07;;;;;;;-1.86;97.93;100626.75;5997855;28;20056;-70
2023/03/12 06:01:32;;;;;;;12.38;3.47;;;;;;;-1.95;97.39;100609.81;6003449;28;20109;-70
2023/03/12 06:04:28;;;;;;;9.93;3.47;;;;;;;-1.81;96.59;100617.81;6001602;28;20109;-71
2023/03/12 06:07:24;;;;;;;8.77;3.05;;;;;;;-1.76;95.79;100616.75;6002751;28;20124;-71
2023/03/12 06:10:19;;;;;;;14.77;3.77;;;;;;;-1.73;96.13;100609.66;6001007;28;20046;-70
2023/03/12 06:13:14;;;;;;;8.93;3.17;;;;;;;-1.72;94.71;100593.16;6001278;28;20418;-71
2023/03/12 06:16:15;;;;;;;12.80;2.20;;;;;;;-1.52;94.20;100603.44;6002484;28;20278;-70
2023/03/12 06:19:12;;;;;;;4.85;1.88;;;;;;;-1.41;93.40;100606.38;6002372;28;20385;-71
2023/03/12 06:22:08;;;;;;;6.72;1.85;;;;;;;-1.43;92.60;100596.97;6001948;28;20145;-71
2023/03/12 06:25:04;;;;;;;3.30;1.77;;;;;;;-1.30;93.26;100609.31;6005164;28;20453;-71
2023/03/12 06:27:59;;;;;;;3.90;1.88;;;;;;;-1.29;92.85;100611.00;6001411;28;20674;-71
2023/03/12 06:30:55;;;;;;;6.10;1.87;;;;;;;-1.17;92.28;100600.94;6001837;28;20045;-70
2023/03/12 06:33:52;;;;;;;4.28;2.20;;;;;;;-1.15;91.43;100578.28;6000972;28;20043;-71
2023/03/12 06:36:47;;;;;;;4.45;2.20;;;;;;;-0.96;90.63;100592.06;6004890;28;20038;-71
2023/03/12 06:39:43;;;;;;;4.13;1.93;;;;;;;-0.85;90.18;100589.78;6002110;28;20493;-70
2023/03/12 06:42:38;;;;;;;4.03;2.13;;;;;;;-0.81;90.16;100583.47;6000977;28;20277;-70
2023/03/12 06:45:33;;;;;;;8.35;2.38;;;;;;;-0.71;89.67;100587.31;6000600;28;20278;-71
2023/03/12 06:48:32;;;;;;;6.37;1.90;;;;;;;-0.76;89.80;100576.31;6002135;28;20081;-71
2023/03/12 06:51:27;;;;;;;3.88;1.98;;;;;;;-0.56;89.63;100581.31;6002270;28;20076;-71
2023/03/12 06:54:23;;;;;;;5.23;2.03;;;;;;;-0.58;88.82;100561.47;6001142;28;20047;-71
2023/03/12 06:57:18;;;;;;;6.40;2.00;;;;;;;-0.42;88.63;100573.63;6005522;28;20753;-72
2023/03/12 07:00:13;;;;;;;4.00;1.67;;;;;;;-0.47;87.75;100570.44;6006716;28;20396;-72
2023/03/12 07:03:09;;;;;;;5.20;2.22;;;;;;;-0.38;87.25;100579.53;6004615;28;20073;-72
2023/03/12 07:06:12;;;;;;;4.72;2.67;;;;;;;-0.32;86.65;100587.84;6006479;28;20027;-74
2023/03/12 07:09:08;;;;;;;3.50;1.48;;;;;;;-0.36;86.83;100565.50;6006355;28;20039;-74
2023/03/12 07:12:03;;;;;;;4.63;1.80;;;;;;;-0.22;85.85;100581.22;6005548;28;20054;-74
2023/03/12 07:14:58;;;;;;;12.53;3.97;;;;;;;-0.17;85.55;100579.22;6005649;28;20038;-74
2023/03/12 07:17:54;;;;;;;6.00;2.27;;;;;;;-0.06;84.82;100576.91;6004797;28;20290;-74
2023/03/12 07:20:50;;;;;;;3.77;2.10;;;;;;;-0.02;84.08;100567.97;6006074;28;20126;-72
2023/03/12 07:23:46;;;;;;;4.35;1.63;;;;;;;0.15;82.97;100581.84;6003546;28;20095;-75
2023/03/12 07:26:42;;;;;;;5.60;2.30;;;;;;;0.13;82.31;100568.91;6006088;28;20038;-72
2023/03/12 07:29:37;;;;;;;7.57;1.88;;;;;;;0.16;81.64;100568.75;6005720;28;20081;-72
2023/03/12 07:32:35;;;;;;;6.13;2.23;;;;;;;0.27;80.97;100563.75;6003267;28;20046;-75
2023/03/12 07:35:31;;;;;;;5.13;2.45;;;;;;;0.37;80.42;100564.97;5998753;28;20035;-71
2023/03/12 07:38:26;;;;;;;4.47;1.95;;;;;;;0.42;79.17;100557.72;6006049;28;20041;-72
2023/03/12 07:41:22;;;;;;;2.87;1.30;;;;;;;0.51;78.34;100559.81;6005407;28;20055;-74
2023/03/12 07:44:17;;;;;;;6.33;1.53;;;;;;;0.49;77.15;100539.97;6003380;28;20645;-72
2023/03/12 07:47:13;;;;;;;6.57;1.53;;;;;;;0.64;77.16;100567.78;6005327;28;20329;-71
2023/03/12 07:50:09;;;;;;;4.43;2.15;;;;;;;0.71;77.04;100563.88;6004558;28;20434;-71
2023/03/12 07:53:05;;;;;;;7.88;1.70;;;;;;;0.75;76.40;100565.41;5999935;28;20049;-71
2023/03/12 07:56:00;;;;;;;7.10;1.85;;;;;;;0.83;76.23;100557.13;6005062;28;20026;-72
2023/03/12 07:58:55;;;;;;;10.85;2.53;;;;;;;0.83;76.05;100550.13;6003989;28;20042;-72
2023/03/12 08:01:51;;;;;;;6.03;2.17;;;;;;;0.87;75.72;100542.97;6004551;28;20046;-73
2023/03/12 08:04:46;;;;;;;4.57;1.80;;;;;;;1.11;76.02;100552.81;6005220;28;20030;-73
2023/03/12 08:07:41;;;;;;;4.17;1.67;;;;;;;1.29;74.92;100560.50;6004051;28;20027;-72
2023/03/12 08:10:37;;;;;;;3.57;1.60;;;;;;;1.53;73.40;100559.88;6005187;28;20281;-74
2023/03/12 08:13:32;;;;;;;4.03;1.43;;;;;;;1.66;72.03;100566.03;6002328;28;20035;-74
2023/03/12 08:16:28;;;;;;;3.63;1.48;;;;;;;1.69;71.73;100570.22;6001767;28;20457;-74
2023/03/12 08:20:09;;;;;;;4.57;1.33;;;;;;;1.79;71.01;100550.44;6004224;28;20049;-73
2023/03/12 08:23:04;;;;;;;4.22;1.77;;;;;;;1.64;70.56;100535.69;6004262;28;20634;-74
2023/03/12 08:26:41;;;;;;;5.82;1.85;;;;;;;1.55;71.68;100491.84;6016247;28;20542;-74
2023/03/12 08:29:37;;;;;;;8.20;3.60;;;;;;;1.79;70.84;100498.16;5982101;28;20070;-74
2023/03/12 08:32:32;;;;;;;4.93;1.70;;;;;;;2.35;69.83;100539.88;6003391;28;20047;-75
2023/03/12 08:35:27;;;;;;;5.23;1.80;;;;;;;2.19;69.02;100528.72;6002620;28;20027;-74
2023/03/12 08:38:23;;;;;;;7.43;2.30;;;;;;;2.08;69.23;100512.00;6001457;28;20826;-72
2023/03/12 08:41:19;;;;;;;5.63;1.70;;;;;;;2.05;69.43;100526.13;6000665;28;20125;-73
2023/03/12 08:44:14;;;;;;;5.43;1.70;;;;;;;2.08;70.18;100510.25;6001538;28;20313;-74
2023/03/12 08:47:09;;;;;;;2.20;1.23;;;;;;;2.19;69.66;100512.16;6004249;28;20035;-73
2023/03/12 08:50:05;;;;;;;7.47;1.60;;;;;;;2.13;69.79;100515.16;6003296;28;20118;-73
2023/03/12 08:53:01;;;;;;;4.50;1.20;;;;;;;2.33;69.07;100528.66;6000011;28;20326;-72
2023/03/12 08:55:56;;;;;;;4.90;1.60;;;;;;;2.42;69.58;100507.13;6001529;28;20038;-74
2023/03/12 08:58:51;;;;;;;4.60;1.60;;;;;;;2.57;69.13;100528.00;6001299;28;20034;-75
2023/03/12 09:01:47;;;;;;;5.67;1.43;;;;;;;2.38;69.13;100537.06;5999699;28;20035;-75
2023/03/12 09:04:46;;;;;;;3.92;1.25;;;;;;;2.42;69.70;100538.53;5999395;28;20027;-71
2023/03/12 09:07:42;;;;;;;3.95;1.90;;;;;;;2.46;70.18;100547.03;6001646;28;20042;-72
2023/03/12 09:10:37;;;;;;;7.23;1.83;;;;;;;2.29;70.15;100532.41;6000719;28;20058;-71
2023/03/12 09:13:33;;;;;;;3.85;1.60;;;;;;;2.39;70.87;100536.09;6001682;28;20294;-71
2023/03/12 09:16:28;;;;;;;3.67;1.67;;;;;;;2.60;68.26;100528.66;6001393;28;20018;-72
2023/03/12 09:19:24;;;;;;;4.83;1.23;;;;;;;2.69;67.17;100527.22;6000186;28;20038;-73
2023/03/12 09:22:19;;;;;;;4.30;1.53;;;;;;;2.99;67.28;100530.41;5999507;28;20394;-72
2023/03/12 09:25:17;;;;;;;4.20;1.25;;;;;;;2.97;66.70;100516.56;6002186;28;20266;-73
2023/03/12 09:28:13;;;;;;;3.38;1.10;;;;;;;3.33;65.09;100508.84;6002146;28;20034;-72
2023/03/12 09:31:08;;;;;;;8.30;2.58;;;;;;;3.20;64.56;100534.22;6002996;28;20059;-71
2023/03/12 09:34:04;;;;;;;4.23;1.20;;;;;;;3.07;64.18;100508.97;6002189;28;20027;-72
2023/03/12 09:36:59;;;;;;;4.20;1.35;;;;;;;2.97;65.54;100500.88;6001514;28;20765;-73
2023/03/12 09:39:55;;;;;;;5.70;1.67;;;;;;;2.99;64.98;100512.91;6001504;28;20081;-71
2023/03/12 09:43:03;;;;;;;3.40;1.00;;;;;;;2.98;64.57;100510.41;5999291;28;20038;-73
2023/03/12 09:45:58;;;;;;;5.05;1.50;;;;;;;2.90;65.26;100489.97;6001091;28;20753;-73
2023/03/12 09:48:56;;;;;;;4.55;1.30;;;;;;;3.34;65.34;100499.22;6002114;28;20037;-72
2023/03/12 09:51:54;;;;;;;6.30;1.80;;;;;;;3.58;64.59;100502.75;5999848;28;20049;-73
2023/03/12 09:55:16;;;;;;;7.63;2.13;;;;;;;3.43;64.79;100506.44;5998789;28;20599;-73
2023/03/12 09:58:13;;;;;;;4.05;1.50;;;;;;;3.83;65.95;100496.63;6000983;28;20034;-71
2023/03/12 10:01:18;;;;;;;3.95;1.17;;;;;;;4.22;62.00;100484.09;6000440;28;20536;-72
2023/03/12 10:04:19;;;;;;;2.97;1.30;;;;;;;3.94;61.78;100457.38;6001378;28;20088;-72
2023/03/12 10:07:20;;;;;;;3.53;1.25;;;;;;;3.79;63.21;100479.44;6005231;28;20030;-71
2023/03/12 10:10:23;;;;;;;2.72;1.42;;;;;;;3.55;63.48;100469.72;6000242;28;20039;-71
2023/03/12 10:13:40;;;;;;;4.53;1.50;;;;;;;3.46;63.39;100459.03;6001022;28;20035;-73
2023/03/12 10:16:53;;;;;;;5.75;1.73;;;;;;;4.13;62.46;100457.72;6017396;28;20173;-71
2023/03/12 10:19:57;;;;;;;4.55;1.55;;;;;;;4.10;61.92;100460.56;6002213;28;20035;-71
2023/03/12 10:23:22;;;;;;;3.33;1.60;;;;;;;3.73;63.02;100453.63;6000692;28;20667;-72
2023/03/12 10:26:28;;;;;;;3.72;1.65;;;;;;;3.50;64.43;100450.88;6016439;28;20126;-71
2023/03/12 10:29:35;;;;;;;3.75;1.42;;;;;;;3.25;64.48;100443.03;6020252;28;20030;-72
2023/03/12 10:32:41;;;;;;;5.72;1.45;;;;;;;3.18;65.56;100452.25;6006088;28;20042;-73
2023/03/12 10:35:38;;;;;;;5.70;1.20;;;;;;;3.54;64.92;100441.00;5999427;28;20039;-71
2023/03/12 10:38:33;;;;;;;3.13;1.30;;;;;;;3.27;66.38;100446.38;6021839;28;20113;-73
2023/03/12 10:41:30;;;;;;;4.32;1.50;;;;;;;3.12;66.85;100423.03;6006557;28;20031;-71
2023/03/12 10:44:26;;;;;;;3.13;1.15;;;;;;;3.13;68.79;100420.31;6004651;28;20035;-72
2023/03/12 10:47:37;;;;;;;4.18;2.00;;;;;;;3.18;68.98;100410.34;6007580;28;20117;-73
2023/03/12 10:50:35;;;;;;;4.70;1.38;;;;;;;3.25;70.22;100401.13;6006892;28;20049;-73
2023/03/12 10:53:36;;;;;;;3.60;1.60;;;;;;;3.58;69.24;100406.63;6005314;28;20031;-75
2023/03/12 10:56:47;;;;;;;4.93;1.55;;;;;;;3.39;69.74;100390.50;6021328;28;20038;-71
2023/03/12 10:59:46;;;;;;;4.70;1.65;;;;;;;3.34;71.40;100383.94;5997943;28;20062;-71
2023/03/12 11:02:45;;;;;;;3.65;1.20;;;;;;;3.59;71.03;100378.59;6004469;28;20113;-70
2023/03/12 11:05:48;;;;;;;9.00;1.77;;;;;;;3.42;70.40;100368.50;6005779;28;20033;-69
2023/03/12 11:09:03;;;;;;;5.43;1.83;;;;;;;3.29;72.25;100392.09;6006108;28;20177;-71
2023/03/12 11:11:58;;;;;;;4.32;1.70;;;;;;;3.32;72.57;100391.88;6004605;28;20093;-72
2023/03/12 11:14:54;;;;;;;3.70;1.50;;;;;;;3.27;72.36;100388.75;6006458;28;20050;-71
2023/03/12 11:17:50;;;;;;;3.33;1.45;;;;;;;2.82;73.72;100355.28;6002443;28;20290;-71
2023/03/12 11:20:46;;;;;;;5.63;1.98;;;;;;;2.76;74.49;100379.25;6005614;28;20442;-72
2023/03/12 11:24:03;;;;;;;3.85;1.85;;;;;;;2.76;75.42;100369.63;6004525;28;20121;-70
2023/03/12 11:27:06;;;;;;;6.32;1.85;;;;;;;2.69;76.07;100364.94;6006201;28;20398;-70
2023/03/12 11:30:04;;;;;;;4.35;1.63;;;;;;;2.75;77.00;100374.97;5984543;28;20467;-71
2023/03/12 11:33:01;;;;;;;5.50;1.35;;;;;;;2.69;78.20;100360.50;6003380;28;20034;-71
2023/03/12 11:36:08;;;;;;;3.90;1.85;;;;;;;2.54;78.36;100356.34;6004199;28;20493;-73
2023/03/12 11:39:20;;;;;;;5.35;1.23;;;;;;;2.64;79.99;100361.75;5999464;28;20042;-72
2023/03/12 11:42:22;;;;;;;5.38;1.75;;;;;;;2.51;80.92;100334.75;6003065;28;20141;-72
2023/03/12 11:45:45;;;;;;;4.60;1.50;;;;;;;2.52;81.21;100349.53;6004903;28;20035;-71
2023/03/12 11:48:50;;;;;;;3.88;1.55;;;;;;;2.66;82.79;100354.66;6004197;28;20026;-71
2023/03/12 11:51:52;;;;;;;3.45;1.73;;;;;;;2.85;82.14;100342.00;6020920;28;20380;-71
2023/03/12 11:55:12;;;;;;;6.05;1.70;;;;;;;2.80;82.81;100346.72;6019661;28;20046;-72
2023/03/12 11:58:21;;;;;;;7.43;2.35;;;;;;;2.60;83.34;100321.06;6003717;28;20042;-72
2023/03/12 12:01:31;;;;;;;5.95;1.88;;;;;;;2.61;84.28;100320.13;6004862;28;20035;-70
2023/03/12 12:04:49;;;;;;;6.40;2.42;;;;;;;2.53;83.98;100327.66;6001951;28;20513;-69
2023/03/12 12:08:06;;;;;;;7.22;1.95;;;;;;;2.57;85.67;100318.66;5996038;28;20118;-70
2023/03/12 12:11:07;;;;;;;4.13;1.90;;;;;;;2.45;85.25;100299.38;6019663;28;20031;-72
2023/03/12 12:14:10;;;;;;;6.88;1.80;;;;;;;2.68;85.31;100310.91;6002492;28;20467;-72
2023/03/12 12:17:24;;;;;;;4.78;2.40;;;;;;;2.57;85.08;100293.31;6024648;28;20046;-72
2023/03/12 12:20:20;;;;;;;;;;;;;;;2.69;85.30;100282.00;6004302;28;20026;-73
2023/03/12 12:23:46;;;;;;;8.45;2.60;;;;;;;2.78;84.27;100270.03;6002121;28;19969;-73
2023/03/12 12:27:00;;;;;;;4.70;2.75;;;;;;;2.97;84.00;100266.03;6003967;28;20398;-70
2023/03/12 12:30:26;;;;;;;4.75;2.10;;;;;;;2.95;84.26;100259.22;6004481;28;20454;-71
2023/03/12 12:33:34;;;;;;;9.52;2.78;;;;;;;2.96;84.32;100245.19;6003307;28;20394;-73
2023/03/12 12:36:33;;;;;;;4.75;2.33;;;;;;;2.75;85.09;100257.16;5998707;28;20118;-74
2023/03/12 12:39:34;;;;;;;3.35;1.88;;;;;;;2.70;86.33;100251.41;6003097;28;20034;-71
2023/03/12 12:42:31;;;;;;;8.07;2.45;;;;;;;2.56;86.63;100243.69;6006787;28;20122;-71
2023/03/12 12:45:27;;;;;;;7.07;2.83;;;;;;;2.63;87.27;100231.88;6002715;28;20372;-73
2023/03/12 12:48:27;;;;;;;8.20;2.40;;;;;;;2.72;87.24;100242.50;6003636;28;20031;-71
2023/03/12 12:51:26;;;;;;;5.40;1.95;;;;;;;2.73;88.49;100243.34;6002731;28;20114;-72
2023/03/12 12:54:27;;;;;;;5.50;2.35;;;;;;;2.48;90.01;100212.84;6001862;28;20429;-71
2023/03/12 12:57:29;;;;;;;5.43;2.40;;;;;;;2.51;91.61;100217.00;6003380;28;20062;-72
2023/03/12 13:00:46;;;;;;;7.78;2.28;;;;;;;2.42;94.28;100230.75;6003599;28;20106;-72
2023/03/12 13:03:42;;;;;;;4.32;2.08;;;;;;;2.32;96.43;100238.38;6002430;28;20031;-73
2023/03/12 13:07:00;;;;;;;4.78;2.25;;;;;;;2.20;100.00;100245.28;6003181;28;20081;-70
2023/03/12 13:09:57;;;;;;;7.88;2.80;;;;;;;2.10;100.00;100241.63;6001952;28;20049;-72
2023/03/12 13:12:55;;;;;;;8.05;3.35;;;;;;;2.01;100.00;100212.69;6001811;28;20039;-73
2023/03/12 13:16:16;;;;;;;8.10;3.60;;;;;;;2.07;100.00;100214.84;6002676;28;20041;-71
2023/03/12 13:19:12;;;;;;;10.88;4.10;;;;;;;2.09;100.00;100213.81;6003123;28;20073;-74
2023/03/12 13:22:16;;;;;;;8.07;3.40;;;;;;;2.01;100.00;100199.59;6002173;28;20031;-72
2023/03/12 13:25:30;;;;;;;6.60;3.60;;;;;;;2.09;100.00;100205.97;5993367;28;20492;-73
2023/03/12 13:28:25;;;;;;;7.28;4.40;;;;;;;2.30;100.00;100221.97;5999722;28;20079;-71
2023/03/12 13:31:26;;;;;;;6.10;2.83;;;;;;;2.32;100.00;100217.47;5999710;28;20064;-73
2023/03/12 13:34:23;;;;;;;7.13;2.88;;;;;;;2.36;100.00;100211.91;5995620;28;20027;-71
2023/03/12 13:37:27;;;;;;;8.27;3.15;;;;;;;2.31;100.00;100187.84;5999431;28;20454;-74
2023/03/12 13:40:28;;;;;;;8.52;3.80;;;;;;;2.51;100.00;100198.69;5999983;28;20064;-73
2023/03/12 13:43:39;;;;;;;8.02;3.83;;;;;;;2.42;100.00;100196.75;5996508;28;20042;-71
2023/03/12 13:46:38;;;;;;;11.32;3.53;;;;;;;2.46;100.00;100190.34;6000043;28;20038;-70
2023/03/12 13:49:44;;;;;;;7.50;3.47;;;;;;;2.36;100.00;100169.22;5998793;28;20041;-70
2023/03/12 13:52:40;;;;;;;5.75;2.75;;;;;;;2.28;100.00;100158.47;6010609;28;20039;-73
2023/03/12 13:55:36;;;;;;;9.45;3.70;;;;;;;2.33;100.00;100154.59;5990114;28;20415;-72